sensor_id;sensor_type;location;lat;lon;timestamp;pressure;altitude;pressure_sealevel;temperature;humidity
8047;BME280;74083;42.516;23.358;2024-02-23T00:01:58;88125.75;;;5.91;61.26
8047;BME280;74083;42.516;23.358;2024-02-23T00:04:45;88123.56;;;5.86;61.40
8047;BME280;74083;42.516;23.358;2024-02-23T00:07:31;88126.88;;;5.87;61.18
8047;BME280;74083;42.516;23.358;2024-02-23T00:10:16;88117.56;;;5.89;61.20
8047;BME280;74083;42.516;23.358;2024-02-23T00:13:02;88119.06;;;5.91;61.49
8047;BME280;74083;42.516;23.358;2024-02-23T00:15:47;88106.94;;;5.85;61.41
8047;BME280;74083;42.516;23.358;2024-02-23T00:18:33;88122.63;;;5.87;61.45
8047;BME280;74083;42.516;23.358;2024-02-23T00:21:20;88118.38;;;5.89;61.63
8047;BME280;74083;42.516;23.358;2024-02-23T00:24:06;88116.69;;;5.90;61.64
8047;BME280;74083;42.516;23.358;2024-02-23T00:26:54;88118.25;;;5.91;61.75
8047;BME280;74083;42.516;23.358;2024-02-23T00:29:39;88123.56;;;5.86;61.85
8047;BME280;74083;42.516;23.358;2024-02-23T00:32:25;88124.25;;;5.88;62.02
8047;BME280;74083;42.516;23.358;2024-02-23T00:35:11;88123.59;;;5.85;62.44
8047;BME280;74083;42.516;23.358;2024-02-23T00:37:58;88107.56;;;5.89;62.40
8047;BME280;74083;42.516;23.358;2024-02-23T00:40:44;88111.69;;;5.90;61.94
8047;BME280;74083;42.516;23.358;2024-02-23T00:43:29;88107.56;;;5.89;62.19
8047;BME280;74083;42.516;23.358;2024-02-23T00:46:15;88100.06;;;5.89;62.73
8047;BME280;74083;42.516;23.358;2024-02-23T00:49:01;88098.44;;;5.88;62.18
8047;BME280;74083;42.516;23.358;2024-02-23T00:51:46;88105.06;;;5.89;62.26
8047;BME280;74083;42.516;23.358;2024-02-23T00:54:34;88094.25;;;5.88;62.33
8047;BME280;74083;42.516;23.358;2024-02-23T00:57:20;88101.88;;;5.87;62.24
8047;BME280;74083;42.516;23.358;2024-02-23T01:00:11;88089.19;;;5.90;62.25
8047;BME280;74083;42.516;23.358;2024-02-23T01:02:57;88094.25;;;5.88;62.20
8047;BME280;74083;42.516;23.358;2024-02-23T01:05:44;88090.88;;;5.89;61.88
8047;BME280;74083;42.516;23.358;2024-02-23T01:08:30;88099.25;;;5.88;61.91
8047;BME280;74083;42.516;23.358;2024-02-23T01:11:17;88095.13;;;5.87;61.83
8047;BME280;74083;42.516;23.358;2024-02-23T01:14:03;88097.56;;;5.89;61.71
8047;BME280;74083;42.516;23.358;2024-02-23T01:16:50;88084.25;;;5.88;61.54
8047;BME280;74083;42.516;23.358;2024-02-23T01:19:35;88084.38;;;5.87;61.79
8047;BME280;74083;42.516;23.358;2024-02-23T01:22:22;88091.94;;;5.85;61.86
8047;BME280;74083;42.516;23.358;2024-02-23T01:25:08;88081.88;;;5.87;61.51
8047;BME280;74083;42.516;23.358;2024-02-23T01:27:55;88081.69;;;5.90;61.97
8047;BME280;74083;42.516;23.358;2024-02-23T01:30:40;88079.19;;;5.90;61.92
8047;BME280;74083;42.516;23.358;2024-02-23T01:33:26;88080.06;;;5.89;61.91
8047;BME280;74083;42.516;23.358;2024-02-23T01:36:11;88073.56;;;5.86;61.75
8047;BME280;74083;42.516;23.358;2024-02-23T01:38:57;88076.06;;;5.86;61.96
8047;BME280;74083;42.516;23.358;2024-02-23T01:41:42;88074.19;;;5.90;61.54
8047;BME280;74083;42.516;23.358;2024-02-23T01:44:30;88070.88;;;5.89;62.14
8047;BME280;74083;42.516;23.358;2024-02-23T01:47:15;88071.56;;;5.91;61.84
8047;BME280;74083;42.516;23.358;2024-02-23T01:50:02;88075.88;;;5.89;62.13
8047;BME280;74083;42.516;23.358;2024-02-23T01:52:49;88067.44;;;5.90;62.20
8047;BME280;74083;42.516;23.358;2024-02-23T01:55:36;88062.56;;;5.89;62.28
8047;BME280;74083;42.516;23.358;2024-02-23T01:58:22;88060.88;;;5.89;62.27
8047;BME280;74083;42.516;23.358;2024-02-23T02:01:10;88058.25;;;5.91;62.15
8047;BME280;74083;42.516;23.358;2024-02-23T02:03:55;88047.56;;;5.89;62.36
8047;BME280;74083;42.516;23.358;2024-02-23T02:06:41;88050.88;;;5.89;61.92
8047;BME280;74083;42.516;23.358;2024-02-23T02:09:28;88047.56;;;5.89;62.32
8047;BME280;74083;42.516;23.358;2024-02-23T02:12:13;88049.25;;;5.88;62.03
8047;BME280;74083;42.516;23.358;2024-02-23T02:14:59;88040.88;;;5.89;62.23
8047;BME280;74083;42.516;23.358;2024-02-23T02:17:46;88050.06;;;5.89;62.32
8047;BME280;74083;42.516;23.358;2024-02-23T02:20:33;88055.06;;;5.89;62.56
8047;BME280;74083;42.516;23.358;2024-02-23T02:23:19;88056.69;;;5.90;62.07
8047;BME280;74083;42.516;23.358;2024-02-23T02:26:04;88055.25;;;5.86;62.22
8047;BME280;74083;42.516;23.358;2024-02-23T02:28:50;88046.69;;;5.90;62.39
8047;BME280;74083;42.516;23.358;2024-02-23T02:31:36;88054.44;;;5.85;62.01
8047;BME280;74083;42.516;23.358;2024-02-23T02:34:24;88045.25;;;5.86;61.80
8047;BME280;74083;42.516;23.358;2024-02-23T02:37:09;88057.66;;;5.87;61.94
8047;BME280;74083;42.516;23.358;2024-02-23T02:39:55;88044.53;;;5.84;61.79
8047;BME280;74083;42.516;23.358;2024-02-23T02:42:41;88045.25;;;5.86;61.83
8047;BME280;74083;42.516;23.358;2024-02-23T02:45:27;88041.75;;;5.88;61.71
8047;BME280;74083;42.516;23.358;2024-02-23T02:48:13;88041.41;;;5.80;61.48
8047;BME280;74083;42.516;23.358;2024-02-23T02:51:00;88038.56;;;5.86;61.57
8047;BME280;74083;42.516;23.358;2024-02-23T02:53:46;88029.44;;;5.85;61.51
8047;BME280;74083;42.516;23.358;2024-02-23T02:56:31;88028.03;;;5.81;61.62
8047;BME280;74083;42.516;23.358;2024-02-23T02:59:17;88028.63;;;5.85;61.11
8047;BME280;74083;42.516;23.358;2024-02-23T03:02:03;88028.22;;;5.78;61.55
8047;BME280;74083;42.516;23.358;2024-02-23T03:04:49;88035.31;;;5.84;61.06
8047;BME280;74083;42.516;23.358;2024-02-23T03:07:36;88038.59;;;5.85;61.25
8047;BME280;74083;42.516;23.358;2024-02-23T03:10:21;88031.50;;;5.79;61.25
8047;BME280;74083;42.516;23.358;2024-02-23T03:13:07;88039.81;;;5.79;61.33
8047;BME280;74083;42.516;23.358;2024-02-23T03:15:53;88019.81;;;5.79;61.44
8047;BME280;74083;42.516;23.358;2024-02-23T03:18:39;88032.22;;;5.81;61.21
8047;BME280;74083;42.516;23.358;2024-02-23T03:21:24;88025.31;;;5.84;61.16
8047;BME280;74083;42.516;23.358;2024-02-23T03:24:11;88027.03;;;5.84;60.94
8047;BME280;74083;42.516;23.358;2024-02-23T03:26:57;88027.22;;;5.81;61.34
8047;BME280;74083;42.516;23.358;2024-02-23T03:29:43;88033.59;;;5.85;60.70
8047;BME280;74083;42.516;23.358;2024-02-23T03:32:28;88029.81;;;5.79;60.71
8047;BME280;74083;42.516;23.358;2024-02-23T03:35:15;88034.59;;;5.82;60.62
8047;BME280;74083;42.516;23.358;2024-02-23T03:38:01;88035.59;;;5.80;60.90
8047;BME280;74083;42.516;23.358;2024-02-23T03:40:48;88031.31;;;5.82;60.79
8047;BME280;74083;42.516;23.358;2024-02-23T03:43:34;88031.31;;;5.82;60.60
8047;BME280;74083;42.516;23.358;2024-02-23T03:46:21;88025.53;;;5.81;60.69
8047;BME280;74083;42.516;23.358;2024-02-23T03:49:07;88038.22;;;5.78;60.90
8047;BME280;74083;42.516;23.358;2024-02-23T03:51:53;88033.09;;;5.80;60.50
8047;BME280;74083;42.516;23.358;2024-02-23T03:54:38;88037.91;;;5.83;60.42
8047;BME280;74083;42.516;23.358;2024-02-23T03:57:25;88046.31;;;5.82;60.48
8047;BME280;74083;42.516;23.358;2024-02-23T04:00:12;88055.41;;;5.83;60.32
8047;BME280;74083;42.516;23.358;2024-02-23T04:02:58;88043.91;;;5.80;60.65
8047;BME280;74083;42.516;23.358;2024-02-23T04:05:43;88051.22;;;5.83;60.67
8047;BME280;74083;42.516;23.358;2024-02-23T04:08:29;88052.03;;;5.84;60.73
8047;BME280;74083;42.516;23.358;2024-02-23T04:11:15;88052.03;;;5.84;60.87
8047;BME280;74083;42.516;23.358;2024-02-23T04:14:03;88051.22;;;5.83;61.10
8047;BME280;74083;42.516;23.358;2024-02-23T04:16:49;88053.22;;;5.78;60.77
8047;BME280;74083;42.516;23.358;2024-02-23T04:19:35;88049.59;;;5.82;60.57
8047;BME280;74083;42.516;23.358;2024-02-23T04:22:21;88050.31;;;5.84;60.91
8047;BME280;74083;42.516;23.358;2024-02-23T04:25:08;88048.03;;;5.81;60.63
8047;BME280;74083;42.516;23.358;2024-02-23T04:27:53;88054.00;;;5.79;60.82
8047;BME280;74083;42.516;23.358;2024-02-23T04:30:40;88061.22;;;5.83;61.16
8047;BME280;74083;42.516;23.358;2024-02-23T04:33:26;88055.28;;;5.72;61.11
8047;BME280;74083;42.516;23.358;2024-02-23T04:36:12;88057.41;;;5.78;61.12
8047;BME280;74083;42.516;23.358;2024-02-23T04:38:57;88056.41;;;5.80;61.02
8047;BME280;74083;42.516;23.358;2024-02-23T04:41:43;88058.09;;;5.80;61.08
8047;BME280;74083;42.516;23.358;2024-02-23T04:44:29;88065.41;;;5.83;61.36
8047;BME280;74083;42.516;23.358;2024-02-23T04:47:16;88071.59;;;5.77;61.35
8047;BME280;74083;42.516;23.358;2024-02-23T04:50:02;88065.72;;;5.78;61.34
8047;BME280;74083;42.516;23.358;2024-02-23T04:52:48;88068.78;;;5.82;61.10
8047;BME280;74083;42.516;23.358;2024-02-23T04:55:34;88068.97;;;5.79;61.20
8047;BME280;74083;42.516;23.358;2024-02-23T04:58:20;88059.78;;;5.79;61.54
8047;BME280;74083;42.516;23.358;2024-02-23T05:01:06;88068.41;;;5.75;61.55
8047;BME280;74083;42.516;23.358;2024-02-23T05:03:53;88066.59;;;5.77;61.47
8047;BME280;74083;42.516;23.358;2024-02-23T05:06:39;88066.41;;;5.80;61.57
8047;BME280;74083;42.516;23.358;2024-02-23T05:09:25;88066.53;;;5.64;61.74
8047;BME280;74083;42.516;23.358;2024-02-23T05:12:10;88071.84;;;5.73;61.74
8047;BME280;74083;42.516;23.358;2024-02-23T05:14:56;88073.22;;;5.78;61.71
8047;BME280;74083;42.516;23.358;2024-02-23T05:17:41;88071.47;;;5.79;61.92
8047;BME280;74083;42.516;23.358;2024-02-23T05:20:28;88070.78;;;5.77;61.85
8047;BME280;74083;42.516;23.358;2024-02-23T05:23:14;88074.16;;;5.76;61.58
8047;BME280;74083;42.516;23.358;2024-02-23T05:26:01;88078.97;;;5.79;61.34
8047;BME280;74083;42.516;23.358;2024-02-23T05:28:47;88077.41;;;5.78;61.47
8047;BME280;74083;42.516;23.358;2024-02-23T05:31:45;88084.91;;;5.78;61.46
8047;BME280;74083;42.516;23.358;2024-02-23T05:34:31;88080.59;;;5.80;61.48
8047;BME280;74083;42.516;23.358;2024-02-23T05:37:18;88080.78;;;5.77;61.35
8047;BME280;74083;42.516;23.358;2024-02-23T05:40:05;88081.09;;;5.72;61.49
8047;BME280;74083;42.516;23.358;2024-02-23T05:42:54;88083.09;;;5.80;61.44
8047;BME280;74083;42.516;23.358;2024-02-23T05:45:40;88089.91;;;5.78;61.58
8047;BME280;74083;42.516;23.358;2024-02-23T05:48:25;88094.78;;;5.79;61.98
8047;BME280;74083;42.516;23.358;2024-02-23T05:51:11;88103.91;;;5.80;61.82
8047;BME280;74083;42.516;23.358;2024-02-23T05:53:58;88095.41;;;5.83;61.87
8047;BME280;74083;42.516;23.358;2024-02-23T05:56:44;88106.28;;;5.82;61.87
8047;BME280;74083;42.516;23.358;2024-02-23T05:59:30;88096.09;;;5.85;61.75
8047;BME280;74083;42.516;23.358;2024-02-23T06:02:16;88105.25;;;5.86;62.07
8047;BME280;74083;42.516;23.358;2024-02-23T06:05:02;88103.56;;;5.86;62.17
8047;BME280;74083;42.516;23.358;2024-02-23T06:07:47;88101.22;;;5.83;62.33
8047;BME280;74083;42.516;23.358;2024-02-23T06:10:34;88099.38;;;5.87;62.23
8047;BME280;74083;42.516;23.358;2024-02-23T06:13:22;88091.75;;;5.88;61.91
8047;BME280;74083;42.516;23.358;2024-02-23T06:16:10;88097.56;;;5.89;62.07
8047;BME280;74083;42.516;23.358;2024-02-23T06:18:57;88115.06;;;5.89;62.25
8047;BME280;74083;42.516;23.358;2024-02-23T06:21:43;88117.38;;;5.92;62.35
8047;BME280;74083;42.516;23.358;2024-02-23T06:24:29;88121.06;;;5.86;62.73
8047;BME280;74083;42.516;23.358;2024-02-23T06:27:15;88119.19;;;5.90;62.55
8047;BME280;74083;42.516;23.358;2024-02-23T06:30:01;88107.38;;;5.92;62.82
8047;BME280;74083;42.516;23.358;2024-02-23T06:32:47;88107.44;;;5.90;62.89
8047;BME280;74083;42.516;23.358;2024-02-23T06:35:32;88113.38;;;5.89;63.03
8047;BME280;74083;42.516;23.358;2024-02-23T06:38:18;88119.88;;;5.92;63.27
8047;BME280;74083;42.516;23.358;2024-02-23T06:41:04;88120.88;;;5.89;63.48
8047;BME280;74083;42.516;23.358;2024-02-23T06:43:54;88125.75;;;5.91;63.47
8047;BME280;74083;42.516;23.358;2024-02-23T06:46:40;88125.69;;;5.92;63.50
8047;BME280;74083;42.516;23.358;2024-02-23T06:49:26;88126.31;;;5.96;63.39
8047;BME280;74083;42.516;23.358;2024-02-23T06:52:11;88131.19;;;5.97;63.45
8047;BME280;74083;42.516;23.358;2024-02-23T06:54:58;88128.06;;;5.94;63.94
8047;BME280;74083;42.516;23.358;2024-02-23T06:57:43;88123.69;;;5.97;63.84
8047;BME280;74083;42.516;23.358;2024-02-23T07:00:30;88132.88;;;5.97;63.48
8047;BME280;74083;42.516;23.358;2024-02-23T07:03:16;88137.81;;;5.98;63.87
8047;BME280;74083;42.516;23.358;2024-02-23T07:06:01;88135.31;;;5.98;63.75
8047;BME280;74083;42.516;23.358;2024-02-23T07:08:47;88131.50;;;6.05;63.50
8047;BME280;74083;42.516;23.358;2024-02-23T07:11:33;88140.13;;;6.01;63.92
8047;BME280;74083;42.516;23.358;2024-02-23T07:14:18;88147.50;;;6.03;63.96
8047;BME280;74083;42.516;23.358;2024-02-23T07:17:07;88136.31;;;6.08;63.71
8047;BME280;74083;42.516;23.358;2024-02-23T07:19:53;88140.72;;;6.05;63.91
8047;BME280;74083;42.516;23.358;2024-02-23T07:22:47;88137.44;;;6.04;64.02
8047;BME280;74083;42.516;23.358;2024-02-23T07:25:32;88132.25;;;6.07;63.88
8047;BME280;74083;42.516;23.358;2024-02-23T07:28:18;88139.13;;;6.04;64.15
8047;BME280;74083;42.516;23.358;2024-02-23T07:31:06;88138.56;;;6.13;64.51
8047;BME280;74083;42.516;23.358;2024-02-23T07:33:53;88140.63;;;6.06;64.75
8047;BME280;74083;42.516;23.358;2024-02-23T07:36:38;88142.44;;;6.04;64.52
8047;BME280;74083;42.516;23.358;2024-02-23T07:39:24;88136.63;;;6.04;65.01
8047;BME280;74083;42.516;23.358;2024-02-23T07:42:11;88145.16;;;6.14;64.30
8047;BME280;74083;42.516;23.358;2024-02-23T07:44:59;88139.06;;;6.18;64.47
8047;BME280;74083;42.516;23.358;2024-02-23T07:47:44;88140.00;;;6.03;64.96
8047;BME280;74083;42.516;23.358;2024-02-23T07:50:31;88141.50;;;6.05;64.89
8047;BME280;74083;42.516;23.358;2024-02-23T07:53:17;88135.81;;;6.03;65.26
8047;BME280;74083;42.516;23.358;2024-02-23T07:56:04;88128.00;;;5.95;66.27
8047;BME280;74083;42.516;23.358;2024-02-23T07:58:50;88142.06;;;6.10;65.43
8047;BME280;74083;42.516;23.358;2024-02-23T08:01:36;88140.34;;;6.11;65.37
8047;BME280;74083;42.516;23.358;2024-02-23T08:04:21;88149.25;;;6.15;65.28
8047;BME280;74083;42.516;23.358;2024-02-23T08:07:08;88150.72;;;6.05;66.10
8047;BME280;74083;42.516;23.358;2024-02-23T08:09:54;88145.81;;;6.03;66.41
8047;BME280;74083;42.516;23.358;2024-02-23T08:12:40;88151.91;;;5.99;66.16
8047;BME280;74083;42.516;23.358;2024-02-23T08:15:26;88152.50;;;6.03;66.56
8047;BME280;74083;42.516;23.358;2024-02-23T08:18:12;88150.72;;;6.05;66.06
8047;BME280;74083;42.516;23.358;2024-02-23T08:20:58;88147.25;;;6.07;66.13
8047;BME280;74083;42.516;23.358;2024-02-23T08:23:47;88149.75;;;6.07;65.93
8047;BME280;74083;42.516;23.358;2024-02-23T08:26:33;88160.72;;;6.05;65.68
8047;BME280;74083;42.516;23.358;2024-02-23T08:29:19;88156.72;;;6.02;65.59
8047;BME280;74083;42.516;23.358;2024-02-23T08:32:05;88158.94;;;6.07;65.63
8047;BME280;74083;42.516;23.358;2024-02-23T08:34:51;88140.53;;;6.08;65.87
8047;BME280;74083;42.516;23.358;2024-02-23T08:37:43;88161.06;;;6.13;65.70
8047;BME280;74083;42.516;23.358;2024-02-23T08:40:30;88166.06;;;6.13;65.15
8047;BME280;74083;42.516;23.358;2024-02-23T08:43:17;88163.75;;;6.10;65.84
8047;BME280;74083;42.516;23.358;2024-02-23T08:46:02;88164.28;;;6.15;65.69
8047;BME280;74083;42.516;23.358;2024-02-23T08:48:48;88172.56;;;6.15;66.32
8047;BME280;74083;42.516;23.358;2024-02-23T08:51:34;88168.56;;;6.13;65.99
8047;BME280;74083;42.516;23.358;2024-02-23T08:54:20;88174.16;;;6.16;66.32
8047;BME280;74083;42.516;23.358;2024-02-23T08:57:07;88175.13;;;6.28;65.96
8047;BME280;74083;42.516;23.358;2024-02-23T08:59:53;88179.91;;;6.31;65.90
8047;BME280;74083;42.516;23.358;2024-02-23T09:02:41;88172.22;;;6.34;64.77
8047;BME280;74083;42.516;23.358;2024-02-23T09:05:27;88180.47;;;6.36;64.85
8047;BME280;74083;42.516;23.358;2024-02-23T09:08:13;88178.75;;;6.37;64.92
8047;BME280;74083;42.516;23.358;2024-02-23T09:10:59;88192.78;;;6.39;64.90
8047;BME280;74083;42.516;23.358;2024-02-23T09:13:46;88185.69;;;6.46;64.62
8047;BME280;74083;42.516;23.358;2024-02-23T09:16:31;88180.28;;;6.52;64.75
8047;BME280;74083;42.516;23.358;2024-02-23T09:19:17;88184.69;;;6.48;64.31
8047;BME280;74083;42.516;23.358;2024-02-23T09:22:04;88172.50;;;6.56;64.45
8047;BME280;74083;42.516;23.358;2024-02-23T09:24:50;88172.59;;;6.55;64.54
8047;BME280;74083;42.516;23.358;2024-02-23T09:27:36;88162.09;;;6.62;64.88
8047;BME280;74083;42.516;23.358;2024-02-23T09:30:28;88184.03;;;6.59;64.65
8047;BME280;74083;42.516;23.358;2024-02-23T09:33:14;88194.22;;;6.56;64.67
8047;BME280;74083;42.516;23.358;2024-02-23T09:36:00;88189.31;;;6.54;64.98
8047;BME280;74083;42.516;23.358;2024-02-23T09:38:45;88187.63;;;6.67;65.51
8047;BME280;74083;42.516;23.358;2024-02-23T09:41:32;88177.84;;;6.77;65.40
8047;BME280;74083;42.516;23.358;2024-02-23T09:44:18;88183.38;;;6.82;64.90
8047;BME280;74083;42.516;23.358;2024-02-23T09:47:08;88185.78;;;6.84;64.70
8047;BME280;74083;42.516;23.358;2024-02-23T09:49:55;88182.38;;;6.85;64.31
8047;BME280;74083;42.516;23.358;2024-02-23T09:52:41;88177.75;;;6.78;63.72
8047;BME280;74083;42.516;23.358;2024-02-23T09:55:26;88176.75;;;6.81;63.96
8047;BME280;74083;42.516;23.358;2024-02-23T09:58:14;88184.47;;;6.91;63.33
8047;BME280;74083;42.516;23.358;2024-02-23T10:01:02;88162.94;;;6.88;63.52
8047;BME280;74083;42.516;23.358;2024-02-23T10:03:50;88162.75;;;6.91;63.51
8047;BME280;74083;42.516;23.358;2024-02-23T10:06:35;88164.34;;;7.05;63.48
8047;BME280;74083;42.516;23.358;2024-02-23T10:09:21;88167.78;;;7.04;62.97
8047;BME280;74083;42.516;23.358;2024-02-23T10:12:08;88167.56;;;6.94;63.26
8047;BME280;74083;42.516;23.358;2024-02-23T10:14:54;88162.97;;;7.01;62.89
8047;BME280;74083;42.516;23.358;2024-02-23T10:17:39;88166.75;;;6.94;63.40
8047;BME280;74083;42.516;23.358;2024-02-23T10:20:27;88170.75;;;6.96;63.40
8047;BME280;74083;42.516;23.358;2024-02-23T10:23:13;88163.84;;;7.00;63.29
8047;BME280;74083;42.516;23.358;2024-02-23T10:25:58;88156.16;;;7.03;63.14
8047;BME280;74083;42.516;23.358;2024-02-23T10:28:45;88148.13;;;6.98;62.46
8047;BME280;74083;42.516;23.358;2024-02-23T10:31:34;88149.13;;;7.08;62.45
8047;BME280;74083;42.516;23.358;2024-02-23T10:34:22;88153.16;;;7.10;62.87
8047;BME280;74083;42.516;23.358;2024-02-23T10:37:10;88149.34;;;7.17;62.69
8047;BME280;74083;42.516;23.358;2024-02-23T10:39:57;88135.50;;;7.24;62.53
8047;BME280;74083;42.516;23.358;2024-02-23T10:42:48;88146.13;;;7.28;62.78
8047;BME280;74083;42.516;23.358;2024-02-23T10:45:36;88134.22;;;7.19;62.36
8047;BME280;74083;42.516;23.358;2024-02-23T10:48:23;88139.13;;;7.20;62.61
8047;BME280;74083;42.516;23.358;2024-02-23T10:51:10;88139.19;;;7.31;63.22
8047;BME280;74083;42.516;23.358;2024-02-23T10:53:57;88131.41;;;7.36;62.61
8047;BME280;74083;42.516;23.358;2024-02-23T10:56:46;88126.66;;;7.31;62.96
8047;BME280;74083;42.516;23.358;2024-02-23T10:59:32;88119.66;;;7.37;62.84
8047;BME280;74083;42.516;23.358;2024-02-23T11:02:20;88121.06;;;7.28;62.23
8047;BME280;74083;42.516;23.358;2024-02-23T11:05:08;88114.53;;;7.38;62.07
8047;BME280;74083;42.516;23.358;2024-02-23T11:07:56;88126.25;;;7.50;62.53
8047;BME280;74083;42.516;23.358;2024-02-23T11:10:49;88122.66;;;7.54;62.36
8047;BME280;74083;42.516;23.358;2024-02-23T11:13:35;88119.53;;;7.51;62.11
8047;BME280;74083;42.516;23.358;2024-02-23T11:16:22;88114.63;;;7.49;62.75
8047;BME280;74083;42.516;23.358;2024-02-23T11:19:09;88114.13;;;7.57;62.98
8047;BME280;74083;42.516;23.358;2024-02-23T11:21:58;88111.00;;;7.53;62.01
8047;BME280;74083;42.516;23.358;2024-02-23T11:24:44;88109.00;;;7.58;62.51
8047;BME280;74083;42.516;23.358;2024-02-23T11:27:32;88116.03;;;7.53;62.41
8047;BME280;74083;42.516;23.358;2024-02-23T11:30:18;88113.72;;;7.50;62.78
8047;BME280;74083;42.516;23.358;2024-02-23T11:33:08;88102.16;;;7.60;62.75
8047;BME280;74083;42.516;23.358;2024-02-23T11:35:53;88095.84;;;7.55;62.87
8047;BME280;74083;42.516;23.358;2024-02-23T11:38:39;88094.59;;;7.73;62.15
8047;BME280;74083;42.516;23.358;2024-02-23T11:41:26;88097.09;;;7.85;61.91
8047;BME280;74083;42.516;23.358;2024-02-23T11:44:13;88098.13;;;7.70;61.53
8047;BME280;74083;42.516;23.358;2024-02-23T11:47:02;88095.22;;;7.76;61.64
8047;BME280;74083;42.516;23.358;2024-02-23T11:49:48;88084.00;;;7.93;62.26
8047;BME280;74083;42.516;23.358;2024-02-23T11:52:34;88088.50;;;8.01;61.81
8047;BME280;74083;42.516;23.358;2024-02-23T11:55:20;88083.38;;;8.02;60.33
8047;BME280;74083;42.516;23.358;2024-02-23T11:58:06;88071.75;;;8.01;60.55
8047;BME280;74083;42.516;23.358;2024-02-23T12:00:55;88075.25;;;7.99;60.71
8047;BME280;74083;42.516;23.358;2024-02-23T12:03:40;88086.72;;;8.14;60.17
8047;BME280;74083;42.516;23.358;2024-02-23T12:06:29;88067.03;;;8.20;59.33
8047;BME280;74083;42.516;23.358;2024-02-23T12:09:16;88072.19;;;8.19;59.05
8047;BME280;74083;42.516;23.358;2024-02-23T12:12:03;88078.84;;;8.31;59.97
8047;BME280;74083;42.516;23.358;2024-02-23T12:14:49;88055.06;;;8.48;59.59
8047;BME280;74083;42.516;23.358;2024-02-23T12:17:37;88064.34;;;8.58;59.20
8047;BME280;74083;42.516;23.358;2024-02-23T12:20:22;88049.66;;;8.76;57.74
8047;BME280;74083;42.516;23.358;2024-02-23T12:23:08;88061.75;;;8.71;58.69
8047;BME280;74083;42.516;23.358;2024-02-23T12:25:54;88060.72;;;8.73;58.11
8047;BME280;74083;42.516;23.358;2024-02-23T12:28:42;88059.34;;;8.69;58.17
8047;BME280;74083;42.516;23.358;2024-02-23T12:31:28;88049.56;;;8.88;58.20
8047;BME280;74083;42.516;23.358;2024-02-23T12:34:16;88042.84;;;9.00;57.87
8047;BME280;74083;42.516;23.358;2024-02-23T12:37:02;88044.53;;;8.88;57.36
8047;BME280;74083;42.516;23.358;2024-02-23T12:39:49;88034.72;;;8.74;57.64
8047;BME280;74083;42.516;23.358;2024-02-23T12:42:35;88035.75;;;8.94;58.72
8047;BME280;74083;42.516;23.358;2024-02-23T12:45:21;88010.03;;;9.01;58.34
8047;BME280;74083;42.516;23.358;2024-02-23T12:48:07;88008.00;;;9.07;57.11
8047;BME280;74083;42.516;23.358;2024-02-23T12:50:54;88004.34;;;8.88;57.78
8047;BME280;74083;42.516;23.358;2024-02-23T12:53:40;88007.22;;;8.95;57.09
8047;BME280;74083;42.516;23.358;2024-02-23T12:56:26;88009.94;;;9.14;56.69
8047;BME280;74083;42.516;23.358;2024-02-23T12:59:12;88011.78;;;9.12;56.52
8047;BME280;74083;42.516;23.358;2024-02-23T13:01:58;88012.91;;;9.08;57.05
8047;BME280;74083;42.516;23.358;2024-02-23T13:04:44;88008.91;;;9.17;56.69
8047;BME280;74083;42.516;23.358;2024-02-23T13:07:34;88005.03;;;9.13;56.73
8047;BME280;74083;42.516;23.358;2024-02-23T13:10:23;88001.25;;;9.07;56.09
8047;BME280;74083;42.516;23.358;2024-02-23T13:13:08;88003.41;;;8.89;55.82
8047;BME280;74083;42.516;23.358;2024-02-23T13:15:54;87995.66;;;8.92;56.13
8047;BME280;74083;42.516;23.358;2024-02-23T13:18:41;87992.91;;;8.95;55.99
8047;BME280;74083;42.516;23.358;2024-02-23T13:21:26;87998.53;;;8.88;55.48
8047;BME280;74083;42.516;23.358;2024-02-23T13:24:15;88005.84;;;8.80;55.55
8047;BME280;74083;42.516;23.358;2024-02-23T13:27:00;88000.56;;;8.72;55.56
8047;BME280;74083;42.516;23.358;2024-02-23T13:29:46;87989.59;;;8.73;56.03
8047;BME280;74083;42.516;23.358;2024-02-23T13:32:32;88002.84;;;8.75;55.68
8047;BME280;74083;42.516;23.358;2024-02-23T13:35:17;88010.38;;;8.75;55.54
8047;BME280;74083;42.516;23.358;2024-02-23T13:38:04;88011.97;;;8.65;56.63
8047;BME280;74083;42.516;23.358;2024-02-23T13:40:51;88007.97;;;8.62;56.61
8047;BME280;74083;42.516;23.358;2024-02-23T13:43:37;88011.03;;;8.55;56.58
8047;BME280;74083;42.516;23.358;2024-02-23T13:46:23;88010.34;;;8.53;56.48
8047;BME280;74083;42.516;23.358;2024-02-23T13:49:09;88018.91;;;8.50;55.83
8047;BME280;74083;42.516;23.358;2024-02-23T13:51:56;88009.09;;;8.47;55.86
8047;BME280;74083;42.516;23.358;2024-02-23T13:54:41;88023.47;;;8.45;56.65
8047;BME280;74083;42.516;23.358;2024-02-23T13:57:28;88029.59;;;8.41;56.55
8047;BME280;74083;42.516;23.358;2024-02-23T14:00:15;88025.38;;;8.41;56.58
8047;BME280;74083;42.516;23.358;2024-02-23T14:03:01;88032.56;;;8.35;56.97
8047;BME280;74083;42.516;23.358;2024-02-23T14:05:46;88035.19;;;8.33;57.09
8047;BME280;74083;42.516;23.358;2024-02-23T14:08:32;88023.63;;;8.31;57.39
8047;BME280;74083;42.516;23.358;2024-02-23T14:11:18;88025.25;;;8.32;57.13
8047;BME280;74083;42.516;23.358;2024-02-23T14:14:05;88022.72;;;8.32;57.50
8047;BME280;74083;42.516;23.358;2024-02-23T14:16:52;88022.94;;;8.29;57.29
8047;BME280;74083;42.516;23.358;2024-02-23T14:19:38;88022.06;;;8.30;56.96
8047;BME280;74083;42.516;23.358;2024-02-23T14:22:24;88018.75;;;8.29;56.89
8047;BME280;74083;42.516;23.358;2024-02-23T14:25:11;88023.63;;;8.31;56.92
8047;BME280;74083;42.516;23.358;2024-02-23T14:27:57;88025.59;;;8.27;57.34
8047;BME280;74083;42.516;23.358;2024-02-23T14:30:44;88016.31;;;8.28;57.79
8047;BME280;74083;42.516;23.358;2024-02-23T14:33:31;88023.19;;;8.37;57.39
8047;BME280;74083;42.516;23.358;2024-02-23T14:36:17;88030.25;;;8.32;57.57
8047;BME280;74083;42.516;23.358;2024-02-23T14:39:03;88030.03;;;8.35;57.66
8047;BME280;74083;42.516;23.358;2024-02-23T14:41:49;88039.19;;;8.36;57.27
8047;BME280;74083;42.516;23.358;2024-02-23T14:44:35;88040.97;;;8.34;57.76
8047;BME280;74083;42.516;23.358;2024-02-23T14:47:22;88046.63;;;8.25;57.92
8047;BME280;74083;42.516;23.358;2024-02-23T14:50:09;88059.63;;;8.19;58.69
8047;BME280;74083;42.516;23.358;2024-02-23T14:52:55;88053.81;;;8.18;58.77